Time;durP1;ratioP1;P1;durP2;ratioP2;P2;SDS_P1;SDS_P2;PMS_P1;PMS_P2;Temp;Humidity;BMP_temperature;BMP_pressure;BME280_temperature;BME280_humidity;BME280_pressure;Samples;Min_cycle;Max_cycle;Signal;HPM_P1;HPM_P2
2022/09/09 00:01:50;;;;;;;6.23;4.03;;;11.60;99.90;;;;;;5091524;28;20732;-69
2022/09/09 00:04:27;;;;;;;7.33;3.93;;;11.60;99.90;;;;;;5094225;28;20198;-68
2022/09/09 00:07:03;;;;;;;10.00;4.17;;;11.60;99.90;;;;;;5093168;28;20203;-67
2022/09/09 00:09:37;;;;;;;8.20;4.70;;;11.60;99.90;;;;;;5094391;28;20200;-68
2022/09/09 00:12:12;;;;;;;6.07;3.90;;;11.50;99.90;;;;;;5095625;28;20223;-67
2022/09/09 00:14:51;;;;;;;6.57;4.40;;;11.50;99.90;;;;;;5091411;28;20203;-67
2022/09/09 00:17:31;;;;;;;6.97;4.30;;;11.50;99.90;;;;;;5095400;28;20192;-66
2022/09/09 00:20:03;;;;;;;7.90;4.40;;;11.50;99.90;;;;;;5095309;28;20196;-67
2022/09/09 00:22:31;;;;;;;7.30;4.10;;;11.50;99.90;;;;;;5086269;28;20196;-67
2022/09/09 00:25:04;;;;;;;6.83;4.30;;;11.40;99.90;;;;;;5095199;28;20654;-67
2022/09/09 00:27:37;;;;;;;6.57;4.40;;;11.40;99.90;;;;;;5094998;28;20546;-66
2022/09/09 00:30:19;;;;;;;6.27;4.20;;;11.40;99.90;;;;;;5093873;28;20318;-66
2022/09/09 00:32:46;;;;;;;7.10;4.17;;;11.30;99.90;;;;;;5094677;28;20212;-66
2022/09/09 00:35:18;;;;;;;6.77;4.10;;;11.40;99.90;;;;;;5093343;28;20295;-67
2022/09/09 00:37:49;;;;;;;7.60;4.20;;;11.30;99.90;;;;;;5093370;28;20200;-66
2022/09/09 00:40:23;;;;;;;7.30;4.47;;;11.30;99.90;;;;;;5093864;28;20255;-68
2022/09/09 00:42:55;;;;;;;7.97;4.13;;;11.30;99.90;;;;;;5094699;28;20184;-67
2022/09/09 00:45:42;;;;;;;7.43;4.30;;;11.20;99.90;;;;;;5094804;28;20278;-66
2022/09/09 00:48:12;;;;;;;6.73;4.27;;;11.20;99.90;;;;;;5094598;28;20176;-67
2022/09/09 00:50:49;;;;;;;7.60;4.03;;;11.20;99.90;;;;;;5093053;28;20199;-66
2022/09/09 00:53:31;;;;;;;6.90;4.03;;;11.20;99.90;;;;;;5094332;28;20214;-66
2022/09/09 00:56:08;;;;;;;9.17;4.60;;;11.10;99.90;;;;;;5087527;28;20702;-68
2022/09/09 00:58:35;;;;;;;7.93;4.20;;;11.10;99.90;;;;;;5074118;28;20674;-67
2022/09/09 01:01:07;;;;;;;8.07;4.10;;;11.00;99.90;;;;;;5080035;28;20201;-67
2022/09/09 01:03:38;;;;;;;6.70;4.30;;;11.00;99.90;;;;;;5093865;28;20653;-66
2022/09/09 01:06:16;;;;;;;7.73;4.27;;;11.00;99.90;;;;;;5094198;28;20290;-67
2022/09/09 01:09:06;;;;;;;5.40;3.77;;;11.00;99.90;;;;;;5094231;28;20231;-67
2022/09/09 01:11:43;;;;;;;5.30;3.73;;;10.90;99.90;;;;;;5092801;28;20196;-68
2022/09/09 01:14:20;;;;;;;5.97;3.70;;;10.90;99.90;;;;;;5094090;28;20212;-67
2022/09/09 01:16:49;;;;;;;6.23;4.17;;;10.90;99.90;;;;;;5094350;28;20621;-65
2022/09/09 01:19:25;;;;;;;6.97;4.27;;;10.90;99.90;;;;;;5094341;28;20204;-68
2022/09/09 01:22:02;;;;;;;6.40;3.97;;;10.90;99.90;;;;;;5091228;28;20624;-68
2022/09/09 01:24:39;;;;;;;5.43;3.67;;;10.90;99.90;;;;;;5093957;28;20190;-67
2022/09/09 01:27:09;;;;;;;7.30;4.10;;;10.80;99.90;;;;;;5094047;28;20697;-67
2022/09/09 01:29:37;;;;;;;7.23;4.47;;;10.80;99.90;;;;;;5093477;28;20195;-68
2022/09/09 01:32:41;;;;;;;7.60;3.87;;;10.80;99.90;;;;;;5092495;28;20214;-68
2022/09/09 01:35:12;;;;;;;6.07;4.13;;;10.70;99.90;;;;;;5094033;28;20204;-69
2022/09/09 01:37:38;;;;;;;6.63;4.20;;;10.70;99.90;;;;;;5093679;28;20551;-67
2022/09/09 01:40:06;;;;;;;8.23;4.40;;;10.70;99.90;;;;;;5093302;28;20265;-68
2022/09/09 01:42:35;;;;;;;7.47;4.10;;;10.70;99.90;;;;;;5092398;28;20290;-68
2022/09/09 01:45:02;;;;;;;7.60;4.30;;;10.70;99.90;;;;;;5093299;28;20295;-67
2022/09/09 01:47:28;;;;;;;6.53;3.73;;;10.70;99.90;;;;;;5093370;28;20310;-68
2022/09/09 01:49:55;;;;;;;7.60;4.17;;;10.60;99.90;;;;;;5091989;28;20707;-67
2022/09/09 01:52:22;;;;;;;6.33;4.10;;;10.60;99.90;;;;;;5093400;28;20265;-67
2022/09/09 01:54:49;;;;;;;8.20;3.73;;;10.60;99.90;;;;;;5093789;28;20299;-67
2022/09/09 01:57:20;;;;;;;6.00;3.97;;;10.60;99.90;;;;;;5093301;28;20737;-68
2022/09/09 02:00:04;;;;;;;6.07;3.80;;;10.60;99.90;;;;;;5090144;28;20282;-66
2022/09/09 02:02:36;;;;;;;7.93;4.30;;;10.50;99.90;;;;;;5092906;28;20201;-67
2022/09/09 02:05:13;;;;;;;7.33;4.17;;;10.50;99.90;;;;;;5093177;28;20194;-68
2022/09/09 02:07:42;;;;;;;7.73;4.53;;;10.40;99.90;;;;;;5093355;28;20245;-67
2022/09/09 02:10:12;;;;;;;7.60;4.27;;;10.30;99.90;;;;;;5092541;28;20567;-68
2022/09/09 02:12:45;;;;;;;5.90;4.23;;;10.30;99.90;;;;;;5088833;28;20204;-68
2022/09/09 02:15:20;;;;;;;6.77;4.30;;;10.20;99.90;;;;;;5072817;28;20280;-65
2022/09/09 02:17:50;;;;;;;7.80;4.17;;;10.20;99.90;;;;;;5090303;28;20286;-66
2022/09/09 02:20:20;;;;;;;6.33;4.07;;;10.10;99.90;;;;;;5091921;28;20208;-68
2022/09/09 02:22:52;;;;;;;6.67;3.90;;;10.10;99.90;;;;;;5092649;28;20214;-68
2022/09/09 02:25:22;;;;;;;7.90;4.20;;;10.10;99.90;;;;;;5092710;28;20188;-68
2022/09/09 02:27:51;;;;;;;6.60;4.00;;;10.10;99.90;;;;;;5088618;28;20207;-68
2022/09/09 02:30:20;;;;;;;5.50;3.80;;;10.10;99.90;;;;;;5092182;28;20220;-65
2022/09/09 02:32:49;;;;;;;6.87;4.10;;;10.10;99.90;;;;;;5092892;28;20584;-67
2022/09/09 02:35:21;;;;;;;7.00;4.17;;;10.00;99.90;;;;;;5092206;28;20206;-66
2022/09/09 02:37:48;;;;;;;6.30;4.30;;;10.10;99.90;;;;;;5091893;28;20657;-67
2022/09/09 02:40:16;;;;;;;7.43;4.30;;;10.00;99.90;;;;;;5092042;28;20327;-66
2022/09/09 02:42:45;;;;;;;6.43;4.07;;;10.00;99.90;;;;;;5091518;28;20196;-68
2022/09/09 02:45:15;;;;;;;9.23;4.23;;;10.00;99.90;;;;;;5092345;28;20654;-68
2022/09/09 02:47:52;;;;;;;6.77;4.20;;;9.90;99.90;;;;;;5092495;28;20207;-69
2022/09/09 02:50:25;;;;;;;7.07;4.23;;;9.90;99.90;;;;;;5092045;28;20188;-67
2022/09/09 02:53:01;;;;;;;7.07;4.17;;;9.90;99.90;;;;;;5090385;28;20299;-67
2022/09/09 02:55:39;;;;;;;6.70;4.43;;;9.90;99.90;;;;;;5090038;28;20224;-67
2022/09/09 02:58:11;;;;;;;6.83;4.20;;;9.80;99.90;;;;;;5092103;28;20188;-68
2022/09/09 03:00:39;;;;;;;6.27;4.20;;;9.90;99.90;;;;;;5092181;28;20193;-68
2022/09/09 03:03:09;;;;;;;9.80;4.40;;;9.80;99.90;;;;;;5090810;28;20202;-67
2022/09/09 03:05:36;;;;;;;6.20;4.03;;;9.80;99.90;;;;;;5091994;28;20215;-67
2022/09/09 03:08:03;;;;;;;8.77;4.37;;;9.80;99.90;;;;;;5091074;28;20200;-67
2022/09/09 03:10:30;;;;;;;7.33;4.43;;;9.80;99.90;;;;;;5088483;28;20210;-66
2022/09/09 03:12:57;;;;;;;6.87;4.10;;;9.80;99.90;;;;;;5085959;28;20206;-68
2022/09/09 03:15:28;;;;;;;6.07;4.00;;;9.80;99.90;;;;;;5091815;28;20236;-72
2022/09/09 03:17:56;;;;;;;6.33;4.33;;;9.80;99.90;;;;;;5092480;28;20579;-72
2022/09/09 03:20:26;;;;;;;6.83;3.70;;;9.80;99.90;;;;;;5091011;28;20203;-72
2022/09/09 03:22:53;;;;;;;6.00;4.10;;;9.80;99.90;;;;;;5092412;28;20208;-71
2022/09/09 03:25:20;;;;;;;7.33;4.33;;;9.80;99.90;;;;;;5091888;28;20297;-72
2022/09/09 03:27:47;;;;;;;6.80;4.17;;;9.90;99.90;;;;;;5092308;28;20307;-71
2022/09/09 03:30:15;;;;;;;7.50;4.23;;;9.90;99.90;;;;;;5089186;28;20710;-70
2022/09/09 03:32:42;;;;;;;9.33;5.03;;;9.90;99.90;;;;;;5090803;28;20761;-71
2022/09/09 03:35:09;;;;;;;7.37;4.53;;;9.90;99.90;;;;;;5091813;28;20331;-70
2022/09/09 03:37:38;;;;;;;8.33;5.10;;;9.90;99.90;;;;;;5086068;28;20203;-70
2022/09/09 03:40:06;;;;;;;7.07;4.70;;;9.90;99.90;;;;;;5091109;28;20239;-72
2022/09/09 03:42:33;;;;;;;11.93;7.60;;;10.00;99.90;;;;;;5091922;28;20662;-70
2022/09/09 03:45:00;;;;;;;8.03;5.00;;;10.00;99.90;;;;;;5091602;28;20223;-72
2022/09/09 03:47:27;;;;;;;8.67;5.20;;;10.00;99.90;;;;;;5090361;28;20200;-71
2022/09/09 03:49:54;;;;;;;8.17;5.10;;;10.00;99.90;;;;;;5091863;28;20216;-70
2022/09/09 03:52:21;;;;;;;7.23;4.33;;;10.10;99.90;;;;;;5091878;28;20617;-70
2022/09/09 03:54:49;;;;;;;8.60;5.10;;;10.10;99.90;;;;;;5091775;28;20568;-71
2022/09/09 03:57:16;;;;;;;8.70;4.60;;;10.00;99.90;;;;;;5090693;28;20250;-71
2022/09/09 03:59:43;;;;;;;8.23;4.37;;;10.10;99.90;;;;;;5092096;28;20208;-71
2022/09/09 04:02:11;;;;;;;6.97;4.23;;;10.10;99.90;;;;;;5091417;28;20737;-72
2022/09/09 04:04:38;;;;;;;8.93;4.03;;;10.10;99.90;;;;;;5091637;28;20200;-71
2022/09/09 04:07:06;;;;;;;6.93;3.93;;;10.10;99.90;;;;;;5090403;28;20291;-71
2022/09/09 04:09:34;;;;;;;7.83;3.97;;;10.10;99.90;;;;;;5091420;28;20207;-71
2022/09/09 04:12:03;;;;;;;12.63;7.10;;;10.20;99.90;;;;;;5091689;28;20213;-71
2022/09/09 04:14:30;;;;;;;12.67;5.57;;;10.20;99.90;;;;;;5091664;28;20224;-71
2022/09/09 04:16:58;;;;;;;12.53;4.50;;;10.20;99.90;;;;;;5091588;28;20294;-71
2022/09/09 04:19:24;;;;;;;7.50;3.97;;;10.20;99.90;;;;;;5087115;28;20205;-70
2022/09/09 04:21:52;;;;;;;7.10;4.40;;;10.20;99.90;;;;;;5089904;28;20586;-72
2022/09/09 04:24:19;;;;;;;10.13;4.40;;;10.20;99.90;;;;;;5091790;28;20202;-70
2022/09/09 04:26:47;;;;;;;6.73;4.67;;;10.20;99.90;;;;;;5091613;28;20208;-71
2022/09/09 04:29:15;;;;;;;8.53;4.17;;;10.20;99.90;;;;;;5091233;28;20606;-70
2022/09/09 04:31:42;;;;;;;7.00;4.37;;;10.20;99.90;;;;;;5089754;28;20292;-71
2022/09/09 04:34:09;;;;;;;6.63;4.20;;;10.20;99.90;;;;;;5091121;28;20754;-69
2022/09/09 04:36:36;;;;;;;7.50;4.43;;;10.20;99.90;;;;;;5091432;28;20635;-71
2022/09/09 04:39:03;;;;;;;6.87;4.13;;;10.20;99.90;;;;;;5094290;28;20678;-70
2022/09/09 04:41:31;;;;;;;6.70;4.77;;;10.20;99.90;;;;;;5094378;28;20334;-70
2022/09/09 04:43:59;;;;;;;6.30;4.30;;;10.20;99.90;;;;;;5093497;28;20200;-71
2022/09/09 04:46:28;;;;;;;8.20;5.03;;;10.20;99.90;;;;;;5094880;28;20213;-71
2022/09/09 04:48:54;;;;;;;9.60;5.00;;;10.20;99.90;;;;;;5094537;28;20204;-71
2022/09/09 04:51:21;;;;;;;10.20;4.97;;;10.30;99.90;;;;;;5094056;28;20290;-71
2022/09/09 04:53:50;;;;;;;7.43;4.40;;;10.30;99.90;;;;;;5093567;28;20240;-71
2022/09/09 04:56:18;;;;;;;10.63;4.87;;;10.30;99.90;;;;;;5092184;28;20568;-71
2022/09/09 04:58:45;;;;;;;8.13;4.67;;;10.40;99.90;;;;;;5095155;28;20234;-71
2022/09/09 05:01:14;;;;;;;6.23;4.37;;;10.50;99.90;;;;;;5094472;28;20659;-71
2022/09/09 05:03:45;;;;;;;11.30;4.80;;;10.50;99.90;;;;;;5094459;28;20201;-73
2022/09/09 05:06:13;;;;;;;7.83;4.40;;;10.60;99.90;;;;;;5093306;28;20547;-71
2022/09/09 05:08:42;;;;;;;7.57;4.50;;;10.60;99.90;;;;;;5094682;28;20735;-72
2022/09/09 05:11:16;;;;;;;6.37;4.20;;;10.70;99.90;;;;;;5094162;28;20294;-72
2022/09/09 05:13:43;;;;;;;8.97;4.50;;;10.80;99.90;;;;;;5094586;28;20183;-71
2022/09/09 05:16:10;;;;;;;7.53;3.90;;;10.90;99.90;;;;;;5093155;28;20290;-70
2022/09/09 05:18:37;;;;;;;10.40;4.83;;;11.00;99.90;;;;;;5092793;28;20230;-71
2022/09/09 05:21:06;;;;;;;6.87;4.47;;;11.00;99.90;;;;;;5093997;28;20294;-71
2022/09/09 05:23:33;;;;;;;7.97;4.27;;;11.10;99.90;;;;;;5094532;28;20616;-71
2022/09/09 05:26:01;;;;;;;6.93;4.57;;;11.20;99.90;;;;;;5092171;28;20211;-70
2022/09/09 05:28:29;;;;;;;9.20;4.63;;;11.30;99.90;;;;;;5093989;28;20268;-71
2022/09/09 05:31:00;;;;;;;8.73;4.27;;;11.30;99.90;;;;;;5093023;28;20256;-71
2022/09/09 05:33:27;;;;;;;5.97;4.00;;;11.30;99.90;;;;;;5094186;28;20738;-70
2022/09/09 05:36:01;;;;;;;6.30;3.97;;;11.40;99.90;;;;;;5093306;28;20230;-72
2022/09/09 05:38:29;;;;;;;7.97;3.97;;;11.50;99.90;;;;;;5093736;28;20203;-72
2022/09/09 05:40:57;;;;;;;6.33;3.90;;;11.60;99.90;;;;;;5093509;28;20683;-71
2022/09/09 05:43:25;;;;;;;7.47;3.90;;;11.70;99.90;;;;;;5094068;28;20231;-70
2022/09/09 05:46:02;;;;;;;7.77;3.80;;;11.80;99.90;;;;;;5092608;28;20196;-71
2022/09/09 05:48:30;;;;;;;7.20;3.63;;;11.90;99.90;;;;;;5094038;28;20192;-71
2022/09/09 05:50:57;;;;;;;7.40;3.67;;;11.90;99.90;;;;;;5093628;28;20561;-71
2022/09/09 05:53:24;;;;;;;8.47;3.80;;;12.00;99.90;;;;;;5094212;28;20609;-71
2022/09/09 05:55:59;;;;;;;5.17;3.37;;;12.10;99.90;;;;;;5093539;28;20719;-72
2022/09/09 05:58:26;;;;;;;5.17;3.40;;;12.10;99.90;;;;;;5093064;28;20285;-73
2022/09/09 06:00:55;;;;;;;4.97;3.00;;;12.10;99.90;;;;;;5092785;28;20253;-71
2022/09/09 06:03:23;;;;;;;9.70;3.80;;;12.10;99.90;;;;;;5093615;28;20204;-73
2022/09/09 06:05:58;;;;;;;6.37;3.60;;;12.10;99.90;;;;;;5092972;28;20230;-71
2022/09/09 06:08:25;;;;;;;7.13;3.63;;;12.10;99.90;;;;;;5089547;28;20198;-72
2022/09/09 06:10:53;;;;;;;8.00;3.57;;;12.20;99.90;;;;;;5094421;28;20223;-71
2022/09/09 06:13:20;;;;;;;5.73;3.60;;;12.30;99.90;;;;;;5093659;28;20200;-71
2022/09/09 06:15:51;;;;;;;6.80;3.30;;;12.40;99.90;;;;;;5093404;28;20266;-71
2022/09/09 06:18:19;;;;;;;6.27;3.30;;;12.50;99.90;;;;;;5092803;28;20192;-70
2022/09/09 06:33:54;;;;;;;4.63;3.07;;;12.60;99.90;;;;;;5109152;27;20541;-67
2022/09/09 06:36:23;;;;;;;7.50;3.60;;;13.10;99.90;;;;;;5090731;28;20336;-66
2022/09/09 06:38:50;;;;;;;5.60;3.33;;;13.10;99.90;;;;;;5108367;28;20211;-68
2022/09/09 06:41:19;;;;;;;9.17;3.57;;;13.10;99.90;;;;;;5109100;28;20227;-68
2022/09/09 06:43:46;;;;;;;6.83;3.83;;;13.10;99.90;;;;;;5108977;28;20272;-67
2022/09/09 06:46:15;;;;;;;7.90;3.60;;;13.10;99.90;;;;;;5107732;28;20294;-68
2022/09/09 06:48:44;;;;;;;12.17;3.40;;;13.20;99.90;;;;;;5109030;28;20207;-68
2022/09/09 06:51:13;;;;;;;9.90;3.43;;;13.20;99.90;;;;;;5109656;28;20203;-67
2022/09/09 06:53:42;;;;;;;10.30;3.60;;;13.30;99.90;;;;;;5108883;28;20288;-66
2022/09/09 06:56:23;;;;;;;6.67;3.07;;;13.30;99.90;;;;;;5107039;28;20286;-68
2022/09/09 06:58:51;;;;;;;9.50;4.23;;;13.40;99.90;;;;;;5108867;28;20684;-66
2022/09/09 07:01:20;;;;;;;22.50;4.83;;;13.40;99.90;;;;;;5105899;28;20200;-68
2022/09/09 07:03:49;;;;;;;10.57;3.77;;;13.40;99.90;;;;;;5106573;28;20203;-66
2022/09/09 07:06:19;;;;;;;12.13;6.20;;;13.50;99.90;;;;;;5097435;28;20207;-66
2022/09/09 07:08:51;;;;;;;8.67;3.70;;;13.60;99.90;;;;;;5126590;28;20626;-68
2022/09/09 07:11:18;;;;;;;8.43;3.33;;;13.70;99.90;;;;;;5111497;28;20196;-68
2022/09/09 07:13:45;;;;;;;9.03;3.60;;;13.80;99.90;;;;;;5108995;28;20203;-68
2022/09/09 07:16:14;;;;;;;15.00;3.70;;;13.80;99.90;;;;;;5106307;28;21939;-68
2022/09/09 07:18:41;;;;;;;8.20;3.50;;;13.90;99.90;;;;;;5108158;28;20294;-68
2022/09/09 07:21:10;;;;;;;9.63;3.27;;;13.90;99.90;;;;;;5103122;28;20207;-70
2022/09/09 07:23:38;;;;;;;9.80;3.30;;;14.00;99.90;;;;;;5089266;28;20311;-68
2022/09/09 07:26:09;;;;;;;8.90;3.03;;;14.00;99.90;;;;;;5084415;28;20702;-66
2022/09/09 07:28:36;;;;;;;5.53;3.10;;;14.00;99.90;;;;;;5080416;28;20255;-67
2022/09/09 07:31:04;;;;;;;8.47;3.50;;;14.00;99.90;;;;;;5081752;28;20284;-70
2022/09/09 07:33:33;;;;;;;11.20;3.57;;;14.00;99.90;;;;;;5070852;28;20312;-67
2022/09/09 07:36:05;;;;;;;6.87;3.30;;;14.10;99.90;;;;;;5064531;28;20215;-68
2022/09/09 07:38:31;;;;;;;8.40;3.23;;;14.20;99.90;;;;;;5066065;28;20280;-68
2022/09/09 07:41:06;;;;;;;7.87;3.20;;;14.20;99.90;;;;;;5074566;28;20635;-67
2022/09/09 07:43:34;;;;;;;11.13;3.53;;;14.30;99.90;;;;;;5074069;28;20211;-68
2022/09/09 07:46:02;;;;;;;6.73;3.50;;;14.30;99.90;;;;;;5070540;28;20200;-68
2022/09/09 07:48:29;;;;;;;21.90;4.83;;;14.40;99.90;;;;;;5073998;28;20213;-68
2022/09/09 07:51:08;;;;;;;9.13;3.10;;;14.50;99.90;;;;;;5074422;28;20737;-68
2022/09/09 07:53:36;;;;;;;4.63;2.97;;;14.50;99.90;;;;;;5073601;28;20643;-67
2022/09/09 07:56:10;;;;;;;9.70;3.23;;;14.60;99.90;;;;;;5074411;28;20666;-68
2022/09/09 07:58:37;;;;;;;17.43;3.57;;;14.70;99.90;;;;;;5074078;28;20282;-68
2022/09/09 08:01:09;;;;;;;7.97;3.30;;;14.70;99.90;;;;;;5073630;28;20240;-68
2022/09/09 08:03:36;;;;;;;14.63;6.90;;;14.80;99.90;;;;;;5074088;28;20224;-69
2022/09/09 08:06:03;;;;;;;8.43;3.80;;;14.80;99.90;;;;;;5057891;28;20289;-69
2022/09/09 08:08:30;;;;;;;4.53;2.80;;;14.90;99.90;;;;;;5053986;28;20304;-69
2022/09/09 08:11:04;;;;;;;7.17;3.03;;;15.00;99.90;;;;;;5069198;28;20295;-69
2022/09/09 08:13:32;;;;;;;10.90;3.33;;;15.10;99.90;;;;;;5064768;28;20185;-69
2022/09/09 08:16:06;;;;;;;8.37;3.30;;;15.20;99.90;;;;;;5069902;28;20201;-69
2022/09/09 08:18:34;;;;;;;5.10;2.90;;;15.20;99.90;;;;;;5068871;28;20200;-68
2022/09/09 08:21:08;;;;;;;6.03;2.70;;;15.30;99.90;;;;;;5071905;28;20284;-69
2022/09/09 08:23:35;;;;;;;9.80;2.70;;;15.30;99.90;;;;;;5071721;28;20228;-67
2022/09/09 08:26:11;;;;;;;10.87;2.87;;;15.30;99.90;;;;;;5064446;28;20295;-69
2022/09/09 08:28:40;;;;;;;5.57;2.57;;;15.30;99.90;;;;;;5072135;28;20189;-68
2022/09/09 08:31:15;;;;;;;5.60;2.77;;;15.30;99.90;;;;;;5069183;28;20205;-69
2022/09/09 08:33:45;;;;;;;3.23;2.70;;;15.40;99.90;;;;;;5072098;28;20230;-70
2022/09/09 08:36:15;;;;;;;7.87;2.93;;;15.50;99.90;;;;;;5071301;28;20196;-68
2022/09/09 08:38:42;;;;;;;10.47;2.70;;;15.60;99.90;;;;;;5071923;28;20197;-69
2022/09/09 08:41:32;;;;;;;23.67;3.13;;;15.70;99.90;;;;;;5071666;28;20273;-67
2022/09/09 08:44:08;;;;;;;6.93;2.60;;;15.80;98.80;;;;;;5070672;28;20209;-67
2022/09/09 08:46:46;;;;;;;9.90;2.47;;;15.80;98.40;;;;;;5069505;28;20279;-68
2022/09/09 08:49:49;;;;;;;5.37;2.47;;;15.80;99.10;;;;;;5069378;28;20206;-68
2022/09/09 08:52:19;;;;;;;2.70;2.20;;;15.80;98.80;;;;;;5066502;28;20197;-68
2022/09/09 08:54:47;;;;;;;4.47;2.73;;;15.90;98.50;;;;;;5068864;28;20201;-67
2022/09/09 08:57:19;;;;;;;6.03;2.50;;;16.00;98.70;;;;;;5071419;28;20679;-68
2022/09/09 08:59:48;;;;;;;8.60;2.70;;;16.00;98.20;;;;;;5068968;28;20197;-68
2022/09/09 09:02:19;;;;;;;4.00;2.27;;;16.10;98.10;;;;;;5071046;28;20266;-68
2022/09/09 09:04:57;;;;;;;7.37;2.33;;;16.20;97.90;;;;;;5068266;28;20193;-67
2022/09/09 09:07:40;;;;;;;8.93;2.77;;;16.20;97.90;;;;;;5071345;28;20609;-69
2022/09/09 09:10:16;;;;;;;18.13;3.00;;;16.30;96.80;;;;;;5068352;28;20216;-67
2022/09/09 09:12:47;;;;;;;3.40;2.60;;;16.40;97.30;;;;;;5071164;28;20551;-67
2022/09/09 09:15:21;;;;;;;4.63;2.80;;;16.40;97.50;;;;;;5070718;28;20193;-67
2022/09/09 09:17:49;;;;;;;5.97;2.70;;;16.40;98.10;;;;;;5068731;28;20191;-68
2022/09/09 09:20:19;;;;;;;7.23;2.93;;;16.50;97.50;;;;;;5070915;28;20205;-69
2022/09/09 09:22:50;;;;;;;6.27;3.30;;;16.40;97.90;;;;;;5070889;28;20238;-67
2022/09/09 09:25:19;;;;;;;6.23;2.80;;;16.50;98.20;;;;;;5070828;28;20194;-68
2022/09/09 09:27:54;;;;;;;11.70;2.60;;;16.50;97.60;;;;;;5070690;28;20208;-67
2022/09/09 09:30:25;;;;;;;3.07;2.20;;;16.60;97.60;;;;;;5071255;28;20204;-67
2022/09/09 09:32:56;;;;;;;3.67;2.40;;;16.70;97.70;;;;;;5070498;28;20316;-70
2022/09/09 09:35:23;;;;;;;3.93;2.70;;;16.70;97.10;;;;;;5071033;28;20193;-68
2022/09/09 09:37:51;;;;;;;5.17;2.60;;;16.70;97.40;;;;;;5070887;28;20244;-67
2022/09/09 09:40:19;;;;;;;5.43;2.20;;;16.70;97.50;;;;;;5070929;28;20266;-67
2022/09/09 09:42:52;;;;;;;11.27;2.20;;;16.80;97.20;;;;;;5068169;28;20644;-65
2022/09/09 09:45:29;;;;;;;13.33;2.70;;;16.90;96.50;;;;;;5071151;28;20659;-67
2022/09/09 09:48:05;;;;;;;6.93;2.40;;;16.90;96.20;;;;;;5069541;28;20197;-68
2022/09/09 09:50:34;;;;;;;23.83;3.33;;;16.90;95.80;;;;;;5068790;28;20193;-66
2022/09/09 09:53:04;;;;;;;7.80;2.33;;;16.90;95.40;;;;;;5070724;28;20235;-67
2022/09/09 09:55:33;;;;;;;8.43;3.00;;;16.70;94.80;;;;;;5070730;28;20555;-68
2022/09/09 09:58:05;;;;;;;5.23;2.20;;;16.60;94.90;;;;;;5070108;28;20200;-67
2022/09/09 10:00:34;;;;;;;3.20;2.17;;;16.50;95.10;;;;;;5068750;28;20662;-67
2022/09/09 10:03:02;;;;;;;5.17;2.20;;;16.60;95.20;;;;;;5070248;28;20679;-67
2022/09/09 10:05:31;;;;;;;8.60;2.60;;;16.70;95.00;;;;;;5070636;28;20281;-67
2022/09/09 10:08:05;;;;;;;7.37;2.40;;;16.80;94.50;;;;;;5070431;28;20784;-68
2022/09/09 10:10:50;;;;;;;13.23;4.60;;;16.90;94.40;;;;;;5069049;28;20185;-67
2022/09/09 10:13:24;;;;;;;10.23;4.83;;;16.90;93.90;;;;;;5069103;28;20280;-67
2022/09/09 10:16:08;;;;;;;10.37;3.80;;;16.90;93.90;;;;;;5070431;28;20188;-68
2022/09/09 10:18:48;;;;;;;8.17;3.97;;;16.90;94.20;;;;;;5069030;28;20201;-67
2022/09/09 10:21:28;;;;;;;5.03;2.30;;;16.90;94.10;;;;;;5065989;28;20611;-69
2022/09/09 10:24:14;;;;;;;4.83;2.20;;;16.90;93.60;;;;;;5068979;28;20293;-67
2022/09/09 10:26:49;;;;;;;3.57;2.00;;;16.90;93.50;;;;;;5070091;28;20718;-67
2022/09/09 10:29:30;;;;;;;7.63;2.30;;;16.90;94.10;;;;;;5065965;28;20198;-67
2022/09/09 10:32:12;;;;;;;3.77;2.10;;;17.00;93.60;;;;;;5068836;28;20228;-70
2022/09/09 10:35:04;;;;;;;5.20;2.47;;;17.00;94.00;;;;;;5069338;28;20281;-67
2022/09/09 10:37:58;;;;;;;4.87;1.97;;;17.20;93.90;;;;;;5065637;28;20211;-68
2022/09/09 10:40:32;;;;;;;7.97;2.33;;;17.30;93.50;;;;;;5063817;28;20205;-66
2022/09/09 10:43:09;;;;;;;3.57;2.10;;;17.30;93.60;;;;;;5069633;28;20206;-67
2022/09/09 10:45:49;;;;;;;5.40;1.93;;;17.30;93.40;;;;;;5068616;28;20232;-68
2022/09/09 10:48:31;;;;;;;5.40;2.37;;;17.40;93.00;;;;;;5068713;28;20196;-67
2022/09/09 10:51:14;;;;;;;6.35;2.30;;;17.40;93.00;;;;;;5068605;28;20432;-67
2022/09/09 10:53:51;;;;;;;4.97;1.87;;;17.40;92.80;;;;;;5071583;28;20190;-68
2022/09/09 10:56:21;;;;;;;5.80;2.37;;;17.40;92.40;;;;;;5072777;28;20191;-67
2022/09/09 10:58:51;;;;;;;20.33;3.30;;;17.40;92.30;;;;;;5070167;28;20199;-67
2022/09/09 11:01:23;;;;;;;6.10;2.53;;;17.40;92.60;;;;;;5070926;28;20295;-70
2022/09/09 11:03:56;;;;;;;5.23;2.33;;;17.50;92.00;;;;;;5070866;28;20324;-67
2022/09/09 11:06:29;;;;;;;2.47;1.87;;;17.50;92.00;;;;;;5069730;28;20194;-67
2022/09/09 11:09:01;;;;;;;4.03;2.00;;;17.50;92.20;;;;;;5071710;28;20210;-67
2022/09/09 11:11:33;;;;;;;6.13;2.00;;;17.50;92.20;;;;;;5071340;28;20605;-68
2022/09/09 11:14:06;;;;;;;5.20;1.70;;;17.50;92.30;;;;;;5073212;28;20223;-67
2022/09/09 11:16:41;;;;;;;2.77;1.80;;;17.50;92.10;;;;;;5069235;28;20226;-68
2022/09/09 11:19:18;;;;;;;4.30;1.97;;;17.50;92.20;;;;;;5071122;28;20202;-66
2022/09/09 11:21:48;;;;;;;4.13;2.00;;;17.50;91.20;;;;;;5073043;28;20219;-67
2022/09/09 11:24:22;;;;;;;5.20;2.40;;;17.60;91.40;;;;;;5073416;28;20310;-70
2022/09/09 11:26:52;;;;;;;11.57;2.43;;;17.60;91.90;;;;;;5071024;28;20249;-70
2022/09/09 11:29:47;;;;;;;5.93;2.40;;;17.60;91.90;;;;;;5073336;28;20196;-68
2022/09/09 11:32:28;;;;;;;5.17;2.10;;;17.60;92.10;;;;;;5063901;28;20309;-68
2022/09/09 11:35:22;;;;;;;3.90;1.80;;;17.70;92.20;;;;;;5071557;28;20274;-68
2022/09/09 11:38:15;;;;;;;8.10;2.10;;;17.60;91.50;;;;;;5070473;28;20215;-67
2022/09/09 11:40:43;;;;;;;3.17;1.77;;;17.60;92.10;;;;;;5072389;28;20217;-66
2022/09/09 11:43:13;;;;;;;4.67;1.83;;;17.50;91.70;;;;;;5072799;28;20218;-68
2022/09/09 11:45:42;;;;;;;6.67;2.17;;;17.50;91.60;;;;;;5072563;28;20281;-68
2022/09/09 11:48:25;;;;;;;5.90;2.17;;;17.50;91.90;;;;;;5067088;28;20318;-68
2022/09/09 11:51:02;;;;;;;6.73;2.00;;;17.60;91.70;;;;;;5067429;28;20206;-67
2022/09/09 11:53:30;;;;;;;7.57;2.10;;;17.60;91.50;;;;;;5063933;28;20644;-68
2022/09/09 11:56:09;;;;;;;3.27;1.77;;;17.60;91.50;;;;;;5064099;28;20289;-69
2022/09/09 11:58:43;;;;;;;13.57;2.20;;;17.60;91.30;;;;;;5061647;28;20615;-70
2022/09/09 12:01:42;;;;;;;4.83;2.07;;;17.70;91.50;;;;;;5061303;28;20195;-68
2022/09/09 12:04:29;;;;;;;4.87;1.93;;;17.70;90.70;;;;;;5066813;28;20207;-69
2022/09/09 12:07:02;;;;;;;4.70;2.93;;;17.60;91.00;;;;;;5061513;28;20222;-70
2022/09/09 12:09:34;;;;;;;6.13;1.90;;;17.70;90.40;;;;;;5069537;28;20225;-66
2022/09/09 12:12:24;;;;;;;2.90;1.67;;;17.60;90.40;;;;;;5072433;28;20209;-67
2022/09/09 12:15:04;;;;;;;6.10;2.20;;;17.70;90.00;;;;;;5070224;28;20451;-67
2022/09/09 12:17:33;;;;;;;4.90;1.83;;;17.70;90.00;;;;;;5070144;28;20291;-68
2022/09/09 12:20:11;;;;;;;3.27;1.90;;;17.70;89.00;;;;;;5072222;28;20213;-68
2022/09/09 12:22:52;;;;;;;7.07;2.60;;;17.70;89.00;;;;;;5072378;28;20270;-72
2022/09/09 12:25:27;;;;;;;5.27;2.10;;;17.70;90.20;;;;;;5074425;28;20702;-72
2022/09/09 12:28:04;;;;;;;6.33;1.90;;;17.70;90.10;;;;;;5073917;28;20237;-73
2022/09/09 12:30:37;;;;;;;30.43;3.87;;;17.70;90.20;;;;;;5073602;28;20195;-70
2022/09/09 12:33:09;;;;;;;8.83;2.30;;;17.70;89.80;;;;;;5073431;28;20376;-70
2022/09/09 12:35:38;;;;;;;9.63;2.00;;;17.70;89.50;;;;;;5074196;28;20277;-71
2022/09/09 12:38:12;;;;;;;3.93;2.00;;;17.70;89.20;;;;;;5074025;28;20210;-70
2022/09/09 12:40:39;;;;;;;2.67;1.90;;;17.70;89.70;;;;;;5072909;28;20213;-68
2022/09/09 12:43:19;;;;;;;4.27;1.87;;;17.70;89.70;;;;;;5073369;28;20520;-67
2022/09/09 12:45:47;;;;;;;4.63;1.70;;;17.70;88.20;;;;;;5072221;28;20432;-68
2022/09/09 12:48:17;;;;;;;4.37;1.60;;;17.70;89.10;;;;;;5072927;28;20214;-67
2022/09/09 12:50:47;;;;;;;4.20;1.90;;;17.70;88.60;;;;;;5070064;28;20206;-69
2022/09/09 12:53:23;;;;;;;2.53;1.70;;;17.80;89.00;;;;;;5072984;28;20573;-68
2022/09/09 12:55:52;;;;;;;4.40;1.80;;;17.70;88.20;;;;;;5073072;28;20224;-69
2022/09/09 12:58:21;;;;;;;8.73;2.73;;;17.70;89.50;;;;;;5072130;28;20688;-67
2022/09/09 13:00:52;;;;;;;6.87;1.60;;;17.60;89.00;;;;;;5052673;28;20207;-68
2022/09/09 13:03:21;;;;;;;3.50;2.00;;;17.70;88.90;;;;;;5060922;28;20670;-67
2022/09/09 13:05:48;;;;;;;6.53;1.80;;;17.60;89.00;;;;;;5072482;28;20212;-66
2022/09/09 13:08:20;;;;;;;4.13;1.80;;;17.60;88.90;;;;;;5072854;28;20198;-68
2022/09/09 13:10:54;;;;;;;4.83;2.30;;;17.60;88.60;;;;;;5071140;28;20197;-71
2022/09/09 13:13:24;;;;;;;6.57;2.30;;;17.60;89.10;;;;;;5072855;28;20230;-70
2022/09/09 13:15:54;;;;;;;4.97;2.10;;;17.60;89.70;;;;;;5072801;28;20293;-69
2022/09/09 13:18:24;;;;;;;7.07;2.20;;;17.60;90.00;;;;;;5072316;28;20300;-69
2022/09/09 13:20:52;;;;;;;3.80;2.10;;;17.60;90.00;;;;;;5067648;28;20213;-68
2022/09/09 13:23:22;;;;;;;7.10;2.37;;;17.60;90.50;;;;;;5071079;28;20669;-68